createdAt,value
2023-05-19T00:00:02.150Z,102711.72
2023-05-19T00:02:33.770Z,102714.34
2023-05-19T00:05:03.749Z,102720.56
2023-05-19T00:07:32.659Z,102724.09
2023-05-19T00:09:59.727Z,102730.28
2023-05-19T00:12:27.131Z,102731.19
2023-05-19T00:14:54.149Z,102728.56
2023-05-19T00:17:21.288Z,102725.03
2023-05-19T00:19:48.014Z,102729.41
2023-05-19T00:22:15.415Z,102734.72
2023-05-19T00:24:42.154Z,102736.50
2023-05-19T00:27:08.874Z,102738.25
2023-05-19T00:29:35.587Z,102740.91
2023-05-19T00:32:02.282Z,102734.75
2023-05-19T00:34:29.027Z,102734.75
2023-05-19T00:36:55.695Z,102737.38
2023-05-19T00:39:22.344Z,102738.25
2023-05-19T00:41:49.047Z,102740.94
2023-05-19T00:44:15.734Z,102740.03
2023-05-19T00:46:42.446Z,102741.78
2023-05-19T00:49:09.143Z,102742.69
2023-05-19T00:51:37.124Z,102744.41
2023-05-19T00:54:04.281Z,102744.41
2023-05-19T00:56:31.812Z,102744.41
2023-05-19T00:58:59.403Z,102746.16
2023-05-19T01:01:27.073Z,102746.19
2023-05-19T01:06:23.380Z,102754.13
2023-05-19T01:08:51.715Z,102748.78
2023-05-19T01:11:18.423Z,102748.81
2023-05-19T01:13:45.715Z,102750.56
2023-05-19T01:16:24.474Z,102751.44
2023-05-19T01:19:02.216Z,102749.66
2023-05-19T01:22:07.009Z,102747.00
2023-05-19T01:24:59.693Z,102750.53
2023-05-19T01:27:59.035Z,102754.06
2023-05-19T01:30:40.736Z,102745.22
2023-05-19T01:33:09.950Z,102755.78
2023-05-19T01:35:39.164Z,102755.81
2023-05-19T01:38:08.716Z,102753.13
2023-05-19T01:40:37.268Z,102767.22
2023-05-19T01:43:04.820Z,102760.16
2023-05-19T01:45:33.704Z,102760.09
2023-05-19T01:48:03.567Z,102758.31
2023-05-19T01:50:31.509Z,102757.44
2023-05-19T01:52:59.046Z,102767.16
2023-05-19T01:55:25.865Z,102758.31
2023-05-19T01:58:18.552Z,102758.28
2023-05-19T02:01:03.166Z,102762.69
2023-05-19T02:03:47.728Z,102769.75
2023-05-19T02:06:39.293Z,102771.50
2023-05-19T02:09:16.074Z,102763.56
2023-05-19T02:12:24.912Z,102768.81
2023-05-19T02:15:15.172Z,102766.09
2023-05-19T02:17:48.388Z,102781.06
2023-05-19T02:20:15.689Z,102780.19
2023-05-19T02:22:42.781Z,102775.78
2023-05-19T02:25:10.455Z,102773.13
2023-05-19T02:27:38.490Z,102779.28
2023-05-19T02:30:06.585Z,102776.69
2023-05-19T02:32:33.577Z,102775.78
2023-05-19T02:35:00.559Z,102777.56
2023-05-19T02:37:28.695Z,102776.72
2023-05-19T02:39:55.961Z,102770.56
2023-05-19T02:42:22.807Z,102775.88
2023-05-19T02:44:49.879Z,102772.34
2023-05-19T02:47:16.608Z,102774.94
2023-05-19T02:49:44.264Z,102778.47
2023-05-19T02:52:12.207Z,102781.09
2023-05-19T02:54:39.029Z,102775.78
2023-05-19T02:57:06.875Z,102773.16
2023-05-19T02:59:33.634Z,102784.63
2023-05-19T03:02:01.887Z,102775.81
2023-05-19T03:04:29.879Z,102780.19
2023-05-19T03:06:57.825Z,102786.41
2023-05-19T03:09:24.661Z,102783.72
2023-05-19T03:11:51.395Z,102787.25
2023-05-19T03:14:18.800Z,102781.94
2023-05-19T03:16:45.751Z,102781.06
2023-05-19T03:19:12.828Z,102783.69
2023-05-19T03:21:39.548Z,102788.13
2023-05-19T03:24:06.771Z,102796.03
2023-05-19T03:26:33.548Z,102792.50
2023-05-19T03:29:00.263Z,102802.19
2023-05-19T03:31:27.147Z,102796.91
2023-05-19T03:33:53.862Z,102809.25
2023-05-19T03:36:22.149Z,102798.69
2023-05-19T03:38:49.018Z,102803.09
2023-05-19T03:41:15.682Z,102808.38
2023-05-19T03:43:42.358Z,102798.69
2023-05-19T03:46:09.041Z,102808.41
2023-05-19T03:48:35.722Z,102803.13
2023-05-19T03:51:02.366Z,102807.56
2023-05-19T03:53:30.376Z,102803.16
2023-05-19T03:55:57.098Z,102805.81
2023-05-19T03:58:24.222Z,102812.00
2023-05-19T04:00:51.112Z,102804.97
2023-05-19T04:03:17.912Z,102810.31
2023-05-19T04:05:46.102Z,102810.34
2023-05-19T04:08:12.824Z,102813.94
2023-05-19T04:10:39.502Z,102813.97
2023-05-19T04:13:06.272Z,102809.59
2023-05-19T04:15:33.036Z,102808.72
2023-05-19T04:17:59.772Z,102813.16
2023-05-19T04:20:26.493Z,102817.63
2023-05-19T04:22:53.194Z,102817.63
2023-05-19T04:25:20.385Z,102809.72
2023-05-19T04:27:48.402Z,102809.75
2023-05-19T04:30:22.189Z,102808.00
2023-05-19T04:32:52.107Z,102814.19
2023-05-19T04:35:19.609Z,102820.38
2023-05-19T04:37:46.480Z,102817.75
2023-05-19T04:40:13.606Z,102805.38
2023-05-19T04:42:41.571Z,102810.66
2023-05-19T04:45:09.847Z,102813.28
2023-05-19T04:47:39.511Z,102816.84
2023-05-19T04:50:07.359Z,102816.78
2023-05-19T04:52:34.088Z,102810.59
2023-05-19T04:55:00.834Z,102810.63
2023-05-19T04:57:27.478Z,102816.75
2023-05-19T04:59:59.886Z,102821.13
2023-05-19T05:02:28.188Z,102814.91
2023-05-19T05:04:56.661Z,102817.50
2023-05-19T05:07:23.955Z,102816.56
2023-05-19T05:09:51.045Z,102818.28
2023-05-19T05:12:19.125Z,102814.72
2023-05-19T05:14:46.090Z,102823.47
2023-05-19T05:17:13.807Z,102823.44
2023-05-19T05:19:40.872Z,102818.09
2023-05-19T05:22:07.905Z,102823.31
2023-05-19T05:24:34.940Z,102812.59
2023-05-19T05:27:01.775Z,102824.94
2023-05-19T05:29:28.442Z,102822.19
2023-05-19T05:31:55.130Z,102820.34
2023-05-19T05:34:21.821Z,102820.28
2023-05-19T05:36:48.509Z,102824.69
2023-05-19T05:39:15.175Z,102828.13
2023-05-19T05:41:41.841Z,102825.44
2023-05-19T05:44:08.578Z,102826.22
2023-05-19T05:46:35.297Z,102828.78
2023-05-19T05:49:02.262Z,102833.13
2023-05-19T05:51:29.180Z,102833.94
2023-05-19T05:53:56.673Z,102831.16
2023-05-19T05:56:23.704Z,102830.19
2023-05-19T05:58:50.718Z,102838.94
2023-05-19T06:01:17.926Z,102829.97
2023-05-19T06:03:45.137Z,102844.94
2023-05-19T06:06:12.372Z,102833.25
2023-05-19T06:08:39.082Z,102838.47
2023-05-19T06:11:09.346Z,102839.22
2023-05-19T06:13:36.522Z,102831.16
2023-05-19T06:16:03.777Z,102831.97
2023-05-19T06:18:30.624Z,102838.97
2023-05-19T06:20:57.361Z,102842.41
2023-05-19T06:23:25.262Z,102843.19
2023-05-19T06:25:52.013Z,102845.72
2023-05-19T06:28:18.713Z,102849.13
2023-05-19T06:30:45.378Z,102848.97
2023-05-19T06:33:12.251Z,102852.44
2023-05-19T06:35:39.048Z,102853.22
2023-05-19T06:38:05.774Z,102846.84
2023-05-19T06:40:32.739Z,102852.09
2023-05-19T06:42:59.556Z,102855.53
2023-05-19T06:45:26.618Z,102852.75
2023-05-19T06:47:54.485Z,102855.38
2023-05-19T06:50:21.267Z,102855.28
2023-05-19T06:52:47.939Z,102858.78
2023-05-19T06:55:14.703Z,102854.25
2023-05-19T06:57:41.419Z,102863.91
2023-05-19T07:00:17.070Z,102865.53
2023-05-19T07:02:45.560Z,102866.31
2023-05-19T07:05:12.448Z,102862.69
2023-05-19T07:07:39.133Z,102859.88
2023-05-19T07:10:06.492Z,102861.53
2023-05-19T07:12:33.217Z,102863.97
2023-05-19T07:14:59.911Z,102874.47
2023-05-19T07:17:26.675Z,102868.91
2023-05-19T07:19:53.358Z,102874.06
2023-05-19T07:22:20.075Z,102879.28
2023-05-19T07:24:46.826Z,102872.94
2023-05-19T07:27:13.467Z,102873.75
2023-05-19T07:29:40.124Z,102872.69
2023-05-19T07:32:07.206Z,102879.59
2023-05-19T07:34:34.026Z,102887.38
2023-05-19T07:37:00.862Z,102872.91
2023-05-19T07:39:29.749Z,102878.13
2023-05-19T07:41:57.272Z,102878.84
2023-05-19T07:44:24.022Z,102885.84
2023-05-19T07:46:50.794Z,102880.34
2023-05-19T07:49:17.505Z,102881.91
2023-05-19T07:51:44.300Z,102876.59
2023-05-19T07:54:10.972Z,102881.94
2023-05-19T07:56:37.700Z,102872.94
2023-05-19T07:59:04.905Z,102873.72
2023-05-19T08:01:32.497Z,102869.09
2023-05-19T08:03:59.684Z,102876.19
2023-05-19T08:06:26.502Z,102879.72
2023-05-19T08:08:54.322Z,102867.06
2023-05-19T08:11:21.676Z,102869.59
2023-05-19T08:13:49.454Z,102871.16
2023-05-19T08:16:16.609Z,102864.81
2023-05-19T08:18:43.841Z,102861.13
2023-05-19T08:21:10.610Z,102866.41
2023-05-19T08:23:37.570Z,102860.88
2023-05-19T08:26:04.685Z,102859.97
2023-05-19T08:28:31.588Z,102860.72
2023-05-19T08:30:58.450Z,102858.59
2023-05-19T08:33:25.289Z,102861.88
2023-05-19T08:35:51.968Z,102861.59
2023-05-19T08:38:18.648Z,102863.19
2023-05-19T08:40:48.473Z,102865.59
2023-05-19T08:43:15.594Z,102861.00
2023-05-19T08:45:46.656Z,102860.69
2023-05-19T08:48:14.730Z,102865.88
2023-05-19T08:50:47.532Z,102864.81
2023-05-19T08:53:34.100Z,102861.19
2023-05-19T08:56:16.480Z,102861.22
2023-05-19T08:58:44.769Z,102849.69
2023-05-19T09:01:16.801Z,102852.22
2023-05-19T09:03:45.784Z,102859.22
2023-05-19T09:06:13.234Z,102846.41
2023-05-19T09:08:41.630Z,102850.53
2023-05-19T09:11:11.820Z,102846.75
2023-05-19T09:13:39.139Z,102849.22
2023-05-19T09:16:06.668Z,102851.63
2023-05-19T09:18:34.021Z,102862.97
2023-05-19T09:21:03.194Z,102851.19
2023-05-19T09:23:33.645Z,102851.19
2023-05-19T09:26:07.619Z,102840.28
2023-05-19T09:28:36.502Z,102833.72
2023-05-19T09:31:08.874Z,102838.75
2023-05-19T09:33:42.835Z,102844.63
2023-05-19T09:36:11.698Z,102842.25
2023-05-19T09:38:39.952Z,102833.88
2023-05-19T09:41:07.760Z,102841.50
2023-05-19T09:43:35.544Z,102840.13
2023-05-19T09:46:07.314Z,102832.53
2023-05-19T09:48:36.610Z,102843.28
2023-05-19T09:51:10.316Z,102835.97
2023-05-19T09:53:37.331Z,102834.72
2023-05-19T09:56:04.300Z,102826.00
2023-05-19T09:58:37.477Z,102830.13
2023-05-19T10:01:04.852Z,102828.63
2023-05-19T10:03:35.275Z,102834.81
2023-05-19T10:06:04.432Z,102832.50
2023-05-19T10:08:33.562Z,102830.53
2023-05-19T10:11:01.048Z,102838.16
2023-05-19T10:13:30.006Z,102826.13
2023-05-19T10:15:59.646Z,102825.63
2023-05-19T10:18:30.253Z,102826.22
2023-05-19T10:20:58.182Z,102827.63
2023-05-19T10:23:25.607Z,102825.28
2023-05-19T10:25:56.112Z,102822.91
2023-05-19T10:28:28.276Z,102818.00
2023-05-19T10:31:00.546Z,102822.16
2023-05-19T10:33:55.789Z,102804.72
2023-05-19T10:36:48.710Z,102807.28
2023-05-19T10:39:42.781Z,102805.59
2023-05-19T10:42:38.367Z,102802.50
2023-05-19T10:45:20.145Z,102807.13
2023-05-19T10:47:46.946Z,102807.28
2023-05-19T10:50:13.919Z,102812.06
2023-05-19T10:52:40.769Z,102812.59
2023-05-19T10:55:09.086Z,102806.00
2023-05-19T10:57:36.860Z,102811.28
2023-05-19T11:00:24.924Z,102804.59
2023-05-19T11:02:56.381Z,102799.19
2023-05-19T11:05:29.263Z,102805.84
2023-05-19T11:08:07.914Z,102802.81
2023-05-19T11:10:34.861Z,102802.34
2023-05-19T11:13:01.653Z,102801.94
2023-05-19T11:15:28.843Z,102798.88
2023-05-19T11:17:56.038Z,102812.44
2023-05-19T11:20:28.292Z,102801.66
2023-05-19T11:23:04.176Z,102806.56
2023-05-19T11:25:47.549Z,102799.91
2023-05-19T11:28:19.913Z,102809.47
2023-05-19T11:30:51.978Z,102818.63
2023-05-19T11:33:20.467Z,102812.69
2023-05-19T11:35:51.244Z,102805.38
2023-05-19T11:38:19.581Z,102808.88
2023-05-19T11:40:47.798Z,102815.97
2023-05-19T11:43:14.448Z,102811.91
2023-05-19T11:45:41.496Z,102808.66
2023-05-19T11:48:12.533Z,102804.38
2023-05-19T11:50:41.403Z,102807.63
2023-05-19T11:53:08.480Z,102809.56
2023-05-19T11:55:35.150Z,102808.84
2023-05-19T11:58:04.532Z,102811.59
2023-05-19T12:00:37.770Z,102803.81
2023-05-19T12:03:05.144Z,102809.38
2023-05-19T12:05:36.087Z,102812.00
2023-05-19T12:08:06.399Z,102816.03
2023-05-19T12:10:36.565Z,102807.78
2023-05-19T12:13:03.435Z,102815.31
2023-05-19T12:15:32.220Z,102802.84
2023-05-19T12:18:01.595Z,102808.41
2023-05-19T12:20:32.507Z,102805.22
2023-05-19T12:23:00.805Z,102800.97
2023-05-19T12:25:29.208Z,102812.75
2023-05-19T12:28:00.407Z,102808.25
2023-05-19T12:30:32.559Z,102804.16
2023-05-19T12:33:00.095Z,102808.66
2023-05-19T12:35:29.031Z,102810.63
2023-05-19T12:37:56.199Z,102808.72
2023-05-19T12:40:23.080Z,102810.03
2023-05-19T12:42:52.166Z,102807.03
2023-05-19T12:45:22.355Z,102801.47
2023-05-19T12:47:50.308Z,102805.53
2023-05-19T12:50:17.152Z,102803.13
2023-05-19T12:52:46.957Z,102806.81
2023-05-19T12:55:16.662Z,102798.00
2023-05-19T12:57:51.709Z,102801.94
2023-05-19T13:00:25.651Z,102795.38
2023-05-19T13:03:01.700Z,102801.47
2023-05-19T13:05:30.489Z,102805.16
2023-05-19T13:08:04.750Z,102800.59
2023-05-19T13:10:33.329Z,102801.47
2023-05-19T13:13:00.717Z,102797.44
2023-05-19T13:15:34.596Z,102792.28
2023-05-19T13:18:03.656Z,102790.94
2023-05-19T13:20:30.757Z,102805.53
2023-05-19T13:22:57.806Z,102799.84
2023-05-19T13:25:24.793Z,102796.47
2023-05-19T13:27:51.483Z,102792.03
2023-05-19T13:30:19.442Z,102785.69
2023-05-19T13:32:46.280Z,102786.09
2023-05-19T13:35:16.630Z,102778.84
2023-05-19T13:37:43.579Z,102780.94
2023-05-19T13:40:10.774Z,102774.28
2023-05-19T13:42:38.062Z,102771.28
2023-05-19T13:45:05.355Z,102782.50
2023-05-19T13:47:32.184Z,102778.22
2023-05-19T13:49:58.965Z,102780.75
2023-05-19T13:52:28.330Z,102771.28
2023-05-19T13:54:57.439Z,102770.34
2023-05-19T13:57:24.465Z,102771.69
2023-05-19T14:00:01.707Z,102772.25
2023-05-19T14:02:30.249Z,102771.47
2023-05-19T14:04:57.568Z,102771.69
2023-05-19T14:07:25.766Z,102766.34
2023-05-19T14:09:53.012Z,102768.94
2023-05-19T14:12:23.211Z,102773.78
2023-05-19T14:14:52.166Z,102770.41
2023-05-19T14:17:19.193Z,102770.59
2023-05-19T14:19:46.052Z,102778.03
2023-05-19T14:22:13.484Z,102776.19
2023-05-19T14:24:41.593Z,102779.78
2023-05-19T14:27:08.276Z,102782.19
2023-05-19T14:29:35.494Z,102783.97
2023-05-19T14:32:03.346Z,102780.50
2023-05-19T14:34:30.456Z,102771.75
2023-05-19T14:36:57.251Z,102773.56
2023-05-19T14:39:23.932Z,102773.50
2023-05-19T14:41:52.007Z,102772.75
2023-05-19T14:44:18.845Z,102770.97
2023-05-19T14:46:45.595Z,102769.66
2023-05-19T14:49:12.270Z,102778.03
2023-05-19T14:51:38.971Z,102787.59
2023-05-19T14:54:05.644Z,102781.34
2023-05-19T14:56:32.352Z,102788.09
2023-05-19T14:58:59.071Z,102798.22
2023-05-19T15:01:25.917Z,102798.66
2023-05-19T15:03:52.782Z,102793.16
2023-05-19T15:06:19.561Z,102794.72
2023-05-19T15:08:46.487Z,102798.31
2023-05-19T15:11:13.179Z,102797.19
2023-05-19T15:13:39.910Z,102797.47
2023-05-19T15:16:17.684Z,102801.00
2023-05-19T15:18:45.039Z,102793.16
2023-05-19T15:21:12.011Z,102794.16
2023-05-19T15:23:38.789Z,102797.47
2023-05-19T15:26:06.068Z,102797.34
2023-05-19T15:28:33.637Z,102791.31
2023-05-19T15:31:01.415Z,102797.00
2023-05-19T15:33:28.208Z,102786.53
2023-05-19T15:35:54.985Z,102789.38
2023-05-19T15:38:21.756Z,102784.06
2023-05-19T15:40:48.444Z,102792.22
2023-05-19T15:43:15.232Z,102789.19
2023-05-19T15:45:41.942Z,102784.06
2023-05-19T15:48:08.844Z,102784.56
2023-05-19T15:50:36.125Z,102783.00
2023-05-19T15:53:03.443Z,102779.28
2023-05-19T15:55:30.212Z,102790.16
2023-05-19T15:57:56.921Z,102780.69
2023-05-19T16:00:23.726Z,102785.31
2023-05-19T16:02:50.697Z,102788.03
2023-05-19T16:05:17.798Z,102794.19
2023-05-19T16:07:45.086Z,102797.00
2023-05-19T16:10:12.253Z,102792.38
2023-05-19T16:12:38.977Z,102795.25
2023-05-19T16:15:06.177Z,102782.19
2023-05-19T16:17:33.028Z,102787.00
2023-05-19T16:19:59.737Z,102786.75
2023-05-19T16:22:27.232Z,102792.34
2023-05-19T16:24:54.011Z,102791.66
2023-05-19T16:27:20.738Z,102805.38
2023-05-19T16:29:47.437Z,102802.34
2023-05-19T16:32:14.240Z,102803.31
2023-05-19T16:34:41.171Z,102798.59
2023-05-19T16:37:07.894Z,102802.44
2023-05-19T16:39:37.121Z,102802.88
2023-05-19T16:42:04.792Z,102811.34
2023-05-19T16:44:31.730Z,102808.09
2023-05-19T16:46:58.407Z,102811.00
2023-05-19T16:49:25.191Z,102810.03
2023-05-19T16:51:53.200Z,102818.91
2023-05-19T16:54:20.984Z,102812.78
2023-05-19T16:56:47.846Z,102820.09
2023-05-19T16:59:14.558Z,102805.63
2023-05-19T17:01:41.550Z,102808.53
2023-05-19T17:04:08.464Z,102809.78
2023-05-19T17:06:35.241Z,102805.81
2023-05-19T17:09:02.186Z,102806.03
2023-05-19T17:11:29.025Z,102808.41
2023-05-19T17:13:55.738Z,102812.41
2023-05-19T17:16:23.542Z,102809.38
2023-05-19T17:18:50.446Z,102810.78
2023-05-19T17:21:17.779Z,102812.84
2023-05-19T17:23:44.581Z,102818.91
2023-05-19T17:26:11.578Z,102813.66
2023-05-19T17:28:38.371Z,102817.47
2023-05-19T17:31:12.347Z,102808.84
2023-05-19T17:33:39.713Z,102812.13
2023-05-19T17:36:07.531Z,102811.25
2023-05-19T17:38:34.799Z,102820.03
2023-05-19T17:41:02.579Z,102822.59
2023-05-19T17:43:29.387Z,102820.03
2023-05-19T17:45:56.815Z,102826.13
2023-05-19T17:48:25.957Z,102829.03
2023-05-19T17:50:52.618Z,102833.50
2023-05-19T17:53:19.884Z,102834.91
2023-05-19T17:55:51.548Z,102830.72
2023-05-19T17:58:19.262Z,102837.84
2023-05-19T18:00:46.227Z,102828.97
2023-05-19T18:03:13.302Z,102831.31
2023-05-19T18:05:40.619Z,102842.63
2023-05-19T18:08:09.397Z,102841.41
2023-05-19T18:10:38.098Z,102844.53
2023-05-19T18:13:05.921Z,102837.13
2023-05-19T18:15:33.030Z,102849.63
2023-05-19T18:18:00.344Z,102846.88
2023-05-19T18:20:27.178Z,102851.59
2023-05-19T18:22:53.895Z,102854.50
2023-05-19T18:25:20.937Z,102863.63
2023-05-19T18:27:47.871Z,102859.00
2023-05-19T18:30:14.645Z,102864.06
2023-05-19T18:32:41.588Z,102865.59
2023-05-19T18:35:09.375Z,102868.91
2023-05-19T18:37:36.467Z,102870.34
2023-05-19T18:40:03.212Z,102877.84
2023-05-19T18:42:30.100Z,102873.78
2023-05-19T18:44:56.900Z,102885.56
2023-05-19T18:47:23.588Z,102880.50
2023-05-19T18:49:52.593Z,102879.84
2023-05-19T18:52:19.932Z,102874.78
2023-05-19T18:54:47.540Z,102878.59
2023-05-19T18:57:14.933Z,102876.97
2023-05-19T18:59:41.773Z,102888.75
2023-05-19T19:02:08.432Z,102887.03
2023-05-19T19:04:35.259Z,102897.03
2023-05-19T19:07:02.006Z,102892.81
2023-05-19T19:09:28.651Z,102901.94
2023-05-19T19:11:55.478Z,102897.00
2023-05-19T19:14:23.432Z,102895.63
2023-05-19T19:16:50.266Z,102905.53
2023-05-19T19:19:17.388Z,102909.16
2023-05-19T19:21:44.326Z,102911.81
2023-05-19T19:24:11.206Z,102912.69
2023-05-19T19:26:38.371Z,102911.06
2023-05-19T19:29:05.110Z,102915.59
2023-05-19T19:31:33.355Z,102920.94
2023-05-19T19:34:03.738Z,102917.34
2023-05-19T19:36:31.908Z,102911.13
2023-05-19T19:38:58.907Z,102913.84
2023-05-19T19:41:26.750Z,102925.53
2023-05-19T19:43:54.404Z,102926.34
2023-05-19T19:46:21.338Z,102931.81
2023-05-19T19:48:49.611Z,102926.66
2023-05-19T19:51:16.476Z,102927.63
2023-05-19T19:53:43.192Z,102931.28
2023-05-19T19:56:09.858Z,102941.22
2023-05-19T19:58:36.823Z,102941.25
2023-05-19T20:01:04.234Z,102936.06
2023-05-19T20:03:31.826Z,102935.38
2023-05-19T20:05:59.173Z,102926.63
2023-05-19T20:08:26.900Z,102933.81
2023-05-19T20:10:53.949Z,102939.13
2023-05-19T20:13:20.784Z,102932.09
2023-05-19T20:15:47.891Z,102929.41
2023-05-19T20:18:14.652Z,102940.22
2023-05-19T20:20:41.986Z,102939.38
2023-05-19T20:23:08.859Z,102938.59
2023-05-19T20:25:53.662Z,102938.75
2023-05-19T20:28:28.450Z,102937.16
2023-05-19T20:30:55.097Z,102941.56
2023-05-19T20:33:21.813Z,102943.47
2023-05-19T20:35:50.041Z,102947.03
2023-05-19T20:38:16.779Z,102938.16
2023-05-19T20:40:43.484Z,102945.31
2023-05-19T20:43:10.269Z,102947.19
2023-05-19T20:45:37.152Z,102942.81
2023-05-19T20:48:04.420Z,102946.50
2023-05-19T20:50:32.197Z,102951.88
2023-05-19T20:52:59.000Z,102946.53
2023-05-19T20:55:25.919Z,102943.00
2023-05-19T20:57:52.607Z,102944.78
2023-05-19T21:00:19.374Z,102943.97
2023-05-19T21:02:46.132Z,102950.34
2023-05-19T21:05:12.922Z,102943.41
2023-05-19T21:07:39.644Z,102958.69
2023-05-19T21:10:07.113Z,102957.03
2023-05-19T21:12:34.352Z,102960.72
2023-05-19T21:15:01.992Z,102951.09
2023-05-19T21:17:28.899Z,102961.84
2023-05-19T21:19:58.217Z,102957.56
2023-05-19T21:22:26.664Z,102960.25
2023-05-19T21:24:56.864Z,102966.53
2023-05-19T21:27:23.609Z,102965.72
2023-05-19T21:29:54.268Z,102967.59
2023-05-19T21:32:21.662Z,102962.28
2023-05-19T21:34:48.428Z,102967.63
2023-05-19T21:37:17.298Z,102964.06
2023-05-19T21:39:44.402Z,102960.53
2023-05-19T21:42:11.153Z,102957.06
2023-05-19T21:44:38.160Z,102965.03
2023-05-19T21:47:05.146Z,102964.16
2023-05-19T21:49:31.830Z,102955.28
2023-05-19T21:51:58.654Z,102966.03
2023-05-19T21:54:25.416Z,102960.75
2023-05-19T21:56:52.193Z,102965.25
2023-05-19T21:59:19.569Z,102963.53
2023-05-19T22:01:46.844Z,102978.63
2023-05-19T22:04:16.439Z,102978.66
2023-05-19T22:06:43.350Z,102969.81
2023-05-19T22:09:10.163Z,102968.09
2023-05-19T22:11:36.856Z,102975.25
2023-05-19T22:14:03.510Z,102975.28
2023-05-19T22:16:31.213Z,102976.16
2023-05-19T22:18:58.198Z,102976.22
2023-05-19T22:21:24.952Z,102970.91
2023-05-19T22:23:52.449Z,102964.72
2023-05-19T22:26:19.159Z,102961.16
2023-05-19T22:28:45.810Z,102962.09
2023-05-19T22:31:12.504Z,102961.22
2023-05-19T22:33:39.182Z,102962.16
2023-05-19T22:36:06.476Z,102960.47
2023-05-19T22:38:33.185Z,102973.78
2023-05-19T22:40:59.887Z,102966.72
2023-05-19T22:43:26.535Z,102970.25
2023-05-19T22:45:53.378Z,102978.22
2023-05-19T22:48:20.098Z,102975.59
2023-05-19T22:50:46.876Z,102980.03
2023-05-19T22:53:13.550Z,102977.38
2023-05-19T22:55:40.765Z,102975.59
2023-05-19T22:58:07.531Z,102975.63
2023-05-19T23:00:34.254Z,102977.38
2023-05-19T23:03:01.092Z,102967.72
2023-05-19T23:05:27.889Z,102977.50
2023-05-19T23:07:54.643Z,102979.28
2023-05-19T23:10:21.367Z,102979.28
2023-05-19T23:12:48.921Z,102981.06
2023-05-19T23:15:15.838Z,102984.59
2023-05-19T23:17:42.524Z,102979.31
2023-05-19T23:20:09.789Z,102981.09
2023-05-19T23:22:36.445Z,102987.34
2023-05-19T23:25:07.692Z,102984.66
2023-05-19T23:27:35.871Z,102977.63
2023-05-19T23:30:03.297Z,102975.81
2023-05-19T23:32:30.147Z,102977.63
2023-05-19T23:34:56.812Z,102980.31
2023-05-19T23:37:23.507Z,102982.09
2023-05-19T23:39:50.566Z,102979.44
2023-05-19T23:42:17.352Z,102985.63
2023-05-19T23:44:44.040Z,102979.47
2023-05-19T23:47:10.774Z,102984.78
2023-05-19T23:49:37.532Z,102984.78
2023-05-19T23:52:04.281Z,102988.31
2023-05-19T23:54:31.120Z,102986.56
2023-05-19T23:56:58.545Z,102990.09
2023-05-19T23:59:25.400Z,102993.63
